createdAt,value
2023-02-26T00:00:09.772Z,96772.66
2023-02-26T00:02:56.002Z,96746.84
2023-02-26T00:05:41.367Z,96732.53
2023-02-26T00:08:26.804Z,96781.78
2023-02-26T00:11:12.997Z,96780.69
2023-02-26T00:14:03.557Z,96719.97
2023-02-26T00:17:14.659Z,96771.53
2023-02-26T00:20:02.061Z,96777.72
2023-02-26T00:22:47.886Z,96627.69
2023-02-26T00:25:33.558Z,96797.09
2023-02-26T00:28:19.845Z,96797.75
2023-02-26T00:31:05.714Z,96638.63
2023-02-26T00:33:56.044Z,96749.91
2023-02-26T00:37:08.024Z,96769.69
2023-02-26T00:40:17.523Z,96575.00
2023-02-26T00:43:05.606Z,96610.91
2023-02-26T00:46:22.058Z,96777.13
2023-02-26T00:49:45.491Z,96812.66
2023-02-26T00:53:05.748Z,96800.88
2023-02-26T00:55:54.382Z,96808.31
2023-02-26T00:58:39.834Z,96825.63
2023-02-26T01:01:26.673Z,96775.56
2023-02-26T01:04:13.872Z,96784.28
2023-02-26T01:06:59.676Z,96803.97
2023-02-26T01:09:49.359Z,96804.28
2023-02-26T01:12:35.220Z,96840.00
2023-02-26T01:15:22.072Z,96769.38
2023-02-26T01:18:27.475Z,96793.34
2023-02-26T01:21:19.325Z,96687.59
2023-02-26T01:24:08.780Z,96690.19
2023-02-26T01:26:54.668Z,96794.06
2023-02-26T01:29:40.301Z,96782.06
2023-02-26T01:33:00.037Z,96774.94
2023-02-26T01:35:53.747Z,96768.06
2023-02-26T01:39:11.810Z,96770.03
2023-02-26T01:42:08.443Z,96730.03
2023-02-26T01:45:02.995Z,96759.63
2023-02-26T01:47:54.441Z,96759.78
2023-02-26T01:50:40.204Z,96592.03
2023-02-26T01:53:26.606Z,96746.75
2023-02-26T01:56:18.118Z,96726.25
2023-02-26T01:59:06.383Z,96804.66
2023-02-26T02:01:56.484Z,96791.84
2023-02-26T02:04:43.973Z,96748.22
2023-02-26T02:07:30.097Z,96646.22
2023-02-26T02:10:16.553Z,96615.72
2023-02-26T02:13:14.556Z,96793.41
2023-02-26T02:16:17.296Z,96699.41
2023-02-26T02:19:09.178Z,96772.94
2023-02-26T02:22:25.858Z,96778.41
2023-02-26T02:25:24.966Z,96795.00
2023-02-26T02:28:44.124Z,96857.53
2023-02-26T02:31:44.597Z,96732.44
2023-02-26T02:34:36.685Z,96825.50
2023-02-26T02:37:34.860Z,96840.41
2023-02-26T02:40:29.634Z,96706.09
2023-02-26T02:43:25.607Z,96854.31
2023-02-26T02:46:26.986Z,96893.97
2023-02-26T02:49:22.274Z,96835.19
2023-02-26T02:52:30.098Z,96855.34
2023-02-26T02:55:32.962Z,96664.50
2023-02-26T02:58:24.681Z,96844.75
2023-02-26T03:01:15.125Z,96674.47
2023-02-26T03:04:07.859Z,96824.72
2023-02-26T03:06:55.507Z,96844.03
2023-02-26T03:09:42.617Z,96853.56
2023-02-26T03:12:33.720Z,96846.41
2023-02-26T03:15:32.029Z,96720.28
2023-02-26T03:18:29.216Z,96864.81
2023-02-26T03:21:29.293Z,96752.28
2023-02-26T03:24:22.926Z,96891.00
2023-02-26T03:27:27.281Z,96922.34
2023-02-26T03:30:26.572Z,96907.03
2023-02-26T03:33:22.107Z,96920.72
2023-02-26T03:36:18.458Z,96931.28
2023-02-26T03:39:22.654Z,96896.91
2023-02-26T03:42:14.902Z,96946.97
2023-02-26T03:45:16.831Z,96811.06
2023-02-26T03:48:07.665Z,96947.56
2023-02-26T03:50:58.505Z,96913.66
2023-02-26T03:54:20.818Z,96958.25
2023-02-26T03:57:15.543Z,96950.00
2023-02-26T04:00:20.680Z,96939.06
2023-02-26T04:03:32.788Z,96953.28
2023-02-26T04:06:20.356Z,96969.69
2023-02-26T04:09:06.218Z,96780.84
2023-02-26T04:11:57.297Z,96987.19
2023-02-26T04:14:42.654Z,96842.75
2023-02-26T04:17:30.364Z,96979.94
2023-02-26T04:20:17.199Z,96791.78
2023-02-26T04:23:02.833Z,96981.19
2023-02-26T04:25:48.228Z,96982.84
2023-02-26T04:28:37.734Z,96973.38
2023-02-26T04:31:23.266Z,96798.34
2023-02-26T04:34:09.144Z,96941.31
2023-02-26T04:36:55.218Z,96975.91
2023-02-26T04:39:40.703Z,96827.97
2023-02-26T04:42:29.130Z,96978.78
2023-02-26T04:45:14.680Z,96959.66
2023-02-26T04:48:00.157Z,96996.31
2023-02-26T04:50:45.863Z,96995.19
2023-02-26T04:53:31.305Z,96809.97
2023-02-26T04:56:16.919Z,97050.28
2023-02-26T04:59:03.593Z,97002.94
2023-02-26T05:01:49.846Z,97012.69
2023-02-26T05:04:35.433Z,97026.22
2023-02-26T05:07:21.969Z,97041.19
2023-02-26T05:10:10.332Z,97047.06
2023-02-26T05:12:56.080Z,97048.13
2023-02-26T05:15:41.753Z,97041.94
2023-02-26T05:18:27.211Z,96881.34
2023-02-26T05:21:12.870Z,97048.50
2023-02-26T05:23:59.134Z,97076.94
2023-02-26T05:26:44.906Z,97066.19
2023-02-26T05:29:30.490Z,97052.72
2023-02-26T05:32:16.953Z,97079.53
2023-02-26T05:35:04.036Z,97105.75
2023-02-26T05:37:49.454Z,97085.31
2023-02-26T05:40:35.318Z,97085.31
2023-02-26T05:43:21.087Z,97095.38
2023-02-26T05:46:06.759Z,97089.72
2023-02-26T05:48:52.066Z,97096.28
2023-02-26T05:51:38.578Z,97044.53
2023-02-26T05:54:24.459Z,97111.44
2023-02-26T05:57:10.269Z,97097.19
2023-02-26T05:59:56.037Z,97111.06
2023-02-26T06:02:42.135Z,97096.31
2023-02-26T06:05:29.291Z,97113.81
2023-02-26T06:08:16.670Z,97136.22
2023-02-26T06:11:06.070Z,97163.03
2023-02-26T06:13:51.668Z,97109.06
2023-02-26T06:16:37.262Z,97147.00
2023-02-26T06:19:22.942Z,96667.81
2023-02-26T06:22:08.695Z,97147.88
2023-02-26T06:24:57.741Z,97153.56
2023-02-26T06:27:43.316Z,97131.69
2023-02-26T06:30:29.122Z,97059.88
2023-02-26T06:33:14.382Z,97035.44
2023-02-26T06:36:00.333Z,96964.00
2023-02-26T06:38:46.730Z,97159.56
2023-02-26T06:41:32.037Z,97170.66
2023-02-26T06:44:18.163Z,97183.81
2023-02-26T06:47:04.095Z,97194.03
2023-02-26T06:49:49.599Z,97060.59
2023-02-26T06:52:35.469Z,97029.97
2023-02-26T06:55:21.943Z,97229.47
2023-02-26T06:58:07.585Z,97189.69
2023-02-26T07:00:53.219Z,97206.84
2023-02-26T07:03:38.511Z,97224.72
2023-02-26T07:06:28.001Z,97236.03
2023-02-26T07:09:14.167Z,97232.94
2023-02-26T07:11:59.510Z,97245.16
2023-02-26T07:14:46.012Z,97254.28
2023-02-26T07:17:32.067Z,97239.69
2023-02-26T07:20:18.236Z,97075.66
2023-02-26T07:23:04.235Z,97237.50
2023-02-26T07:25:50.115Z,97050.34
2023-02-26T07:28:36.661Z,97229.84
2023-02-26T07:31:22.253Z,97231.28
2023-02-26T07:34:07.644Z,97233.13
2023-02-26T07:36:53.188Z,97224.72
2023-02-26T07:39:38.781Z,97099.56
2023-02-26T07:42:24.385Z,97057.63
2023-02-26T07:45:24.796Z,97240.41
2023-02-26T07:48:10.553Z,97247.34
2023-02-26T07:50:57.565Z,97252.13
2023-02-26T07:53:44.133Z,97258.28
2023-02-26T07:56:40.141Z,97250.63
2023-02-26T07:59:29.462Z,97228.19
2023-02-26T08:02:14.733Z,97137.13
2023-02-26T08:05:00.351Z,97247.53
2023-02-26T08:07:45.730Z,97295.56
2023-02-26T08:10:32.308Z,97271.06
2023-02-26T08:13:28.908Z,97238.59
2023-02-26T08:16:17.623Z,97277.28
2023-02-26T08:19:04.338Z,97146.84
2023-02-26T08:21:50.886Z,97217.78
2023-02-26T08:24:36.425Z,97115.28
2023-02-26T08:27:21.910Z,97319.28
2023-02-26T08:30:08.091Z,97281.13
2023-02-26T08:32:53.899Z,97323.28
2023-02-26T08:35:39.314Z,97336.81
2023-02-26T08:38:29.291Z,97180.56
2023-02-26T08:41:15.290Z,97335.34
2023-02-26T08:44:03.840Z,97330.97
2023-02-26T08:46:49.396Z,97225.06
2023-02-26T08:49:34.693Z,97371.50
2023-02-26T08:52:20.960Z,97329.84
2023-02-26T08:55:06.850Z,97344.63
2023-02-26T08:57:53.124Z,97207.56
2023-02-26T09:00:38.811Z,97143.72
2023-02-26T09:03:25.104Z,97397.63
2023-02-26T09:06:10.791Z,97344.44
2023-02-26T09:08:57.609Z,97372.53
2023-02-26T09:11:43.695Z,97377.66
2023-02-26T09:14:29.227Z,97328.00
2023-02-26T09:17:14.930Z,97380.97
2023-02-26T09:20:00.749Z,97369.84
2023-02-26T09:22:46.237Z,97347.56
2023-02-26T09:25:32.834Z,97403.44
2023-02-26T09:28:18.215Z,97402.56
2023-02-26T09:31:04.558Z,97268.31
2023-02-26T09:33:57.968Z,97405.28
2023-02-26T09:36:44.978Z,97370.75
2023-02-26T09:39:32.796Z,97223.25
2023-02-26T09:42:44.640Z,97395.59
2023-02-26T09:45:44.545Z,97389.00
2023-02-26T09:48:37.730Z,97408.94
2023-02-26T09:51:24.184Z,97355.06
2023-02-26T09:54:20.527Z,97222.16
2023-02-26T09:57:12.069Z,97403.25
2023-02-26T10:00:00.723Z,97379.16
2023-02-26T10:02:59.932Z,97447.13
2023-02-26T10:06:10.879Z,97423.19
2023-02-26T10:09:23.225Z,97422.28
2023-02-26T10:12:25.276Z,97425.06
2023-02-26T10:15:17.093Z,97276.53
2023-02-26T10:18:23.798Z,97448.97
2023-02-26T10:21:24.814Z,97401.81
2023-02-26T10:24:36.736Z,97438.72
2023-02-26T10:27:45.098Z,97307.47
2023-02-26T10:30:44.006Z,97309.25
2023-02-26T10:33:51.152Z,97476.34
2023-02-26T10:36:58.120Z,97291.00
2023-02-26T10:40:09.255Z,97306.75
2023-02-26T10:43:14.860Z,97470.53
2023-02-26T10:46:24.526Z,97456.28
2023-02-26T10:49:22.841Z,97471.63
2023-02-26T10:52:19.355Z,97434.50
2023-02-26T10:55:07.898Z,97476.53
2023-02-26T10:58:05.214Z,97449.28
2023-02-26T11:00:54.604Z,97447.22
2023-02-26T11:03:44.645Z,97331.63
2023-02-26T11:06:34.896Z,97498.94
2023-02-26T11:09:25.630Z,97454.47
2023-02-26T11:12:11.298Z,97500.03
2023-02-26T11:14:57.203Z,97501.06
2023-02-26T11:17:43.630Z,97311.97
2023-02-26T11:20:42.490Z,97307.25
2023-02-26T11:23:33.307Z,97490.50
2023-02-26T11:26:26.950Z,97508.44
2023-02-26T11:29:20.231Z,97503.00
2023-02-26T11:32:07.004Z,97333.31
2023-02-26T11:34:55.003Z,97547.25
2023-02-26T11:37:46.085Z,97525.72
2023-02-26T11:40:41.142Z,97523.16
2023-02-26T11:43:45.280Z,97454.06
2023-02-26T11:46:32.016Z,97538.16
2023-02-26T11:49:21.405Z,97584.53
2023-02-26T11:52:22.154Z,97565.19
2023-02-26T11:55:30.329Z,97548.69
2023-02-26T11:58:23.436Z,97370.06
2023-02-26T12:01:12.738Z,97392.00
2023-02-26T12:04:02.078Z,97566.13
2023-02-26T12:06:50.902Z,97382.69
2023-02-26T12:09:36.481Z,97573.06
2023-02-26T12:12:23.061Z,97588.03
2023-02-26T12:15:16.005Z,97588.78
2023-02-26T12:18:15.843Z,97606.22
2023-02-26T12:21:07.453Z,97611.56
2023-02-26T12:24:21.676Z,97524.28
2023-02-26T12:27:43.348Z,97604.44
2023-02-26T12:30:59.490Z,97600.41
2023-02-26T12:34:18.005Z,97600.34
2023-02-26T12:37:42.782Z,97603.97
2023-02-26T12:40:37.278Z,97610.91
2023-02-26T12:43:34.741Z,97594.00
2023-02-26T12:46:36.350Z,97619.16
2023-02-26T12:49:28.347Z,97611.00
2023-02-26T12:53:11.102Z,97603.72
2023-02-26T12:56:45.651Z,97633.53
2023-02-26T13:00:13.277Z,97625.50
2023-02-26T13:03:37.557Z,97632.09
2023-02-26T13:06:42.783Z,97629.38
2023-02-26T13:09:47.813Z,97637.34
2023-02-26T13:12:43.516Z,97632.91
2023-02-26T13:15:50.142Z,97645.31
2023-02-26T13:18:57.621Z,97674.66
2023-02-26T13:21:51.854Z,97683.16
2023-02-26T13:24:43.314Z,97469.69
2023-02-26T13:27:34.397Z,97480.50
2023-02-26T13:30:29.436Z,97681.06
2023-02-26T13:33:23.137Z,97701.28
2023-02-26T13:36:15.602Z,97692.25
2023-02-26T13:39:21.567Z,97715.28
2023-02-26T13:42:38.011Z,97696.69
2023-02-26T13:45:26.797Z,97688.47
2023-02-26T13:48:12.618Z,97694.13
2023-02-26T13:51:13.930Z,97698.47
2023-02-26T13:54:05.075Z,97700.41
2023-02-26T13:57:07.144Z,97704.53
2023-02-26T14:00:20.872Z,97559.38
2023-02-26T14:03:31.147Z,97515.91
2023-02-26T14:06:35.543Z,97753.41
2023-02-26T14:09:25.845Z,97747.94
2023-02-26T14:12:14.533Z,97727.72
2023-02-26T14:15:00.392Z,97759.28
2023-02-26T14:17:51.030Z,97730.84
2023-02-26T14:20:37.093Z,97735.25
2023-02-26T14:23:37.799Z,97680.66
2023-02-26T14:26:25.586Z,97739.75
2023-02-26T14:29:20.357Z,97732.34
2023-02-26T14:32:30.501Z,97533.75
2023-02-26T14:35:25.922Z,97748.22
2023-02-26T14:38:36.306Z,97763.34
2023-02-26T14:41:34.164Z,97746.69
2023-02-26T14:44:25.545Z,97749.41
2023-02-26T14:47:12.745Z,97788.06
2023-02-26T14:50:01.348Z,97746.59
2023-02-26T14:53:15.782Z,97805.53
2023-02-26T14:56:07.454Z,97808.81
2023-02-26T14:59:18.716Z,97797.66
2023-02-26T15:02:25.018Z,97831.75
2023-02-26T15:05:34.771Z,97788.63
2023-02-26T15:08:58.943Z,97830.28
2023-02-26T15:12:15.042Z,97824.19
2023-02-26T15:15:15.355Z,97809.06
2023-02-26T15:18:15.425Z,97812.44
2023-02-26T15:21:08.308Z,97823.59
2023-02-26T15:23:55.550Z,97705.16
2023-02-26T15:26:58.959Z,97845.38
2023-02-26T15:29:48.377Z,97835.41
2023-02-26T15:32:38.267Z,97867.19
2023-02-26T15:35:29.312Z,97860.88
2023-02-26T15:38:15.010Z,97867.09
2023-02-26T15:41:03.975Z,97886.75
2023-02-26T15:43:55.648Z,97688.97
2023-02-26T15:46:46.013Z,97796.56
2023-02-26T15:49:41.814Z,97775.97
2023-02-26T15:52:28.927Z,97873.28
2023-02-26T15:55:18.373Z,97878.66
2023-02-26T15:58:06.409Z,97771.34
2023-02-26T16:00:56.300Z,97905.47
2023-02-26T16:03:41.795Z,97897.25
2023-02-26T16:06:37.424Z,97765.41
2023-02-26T16:09:51.434Z,97938.91
2023-02-26T16:12:40.545Z,97944.97
2023-02-26T16:15:37.003Z,97748.69
2023-02-26T16:18:26.269Z,97956.84
2023-02-26T16:21:34.433Z,97997.19
2023-02-26T16:24:23.102Z,98007.38
2023-02-26T16:27:13.864Z,97986.06
2023-02-26T16:30:01.648Z,97992.47
2023-02-26T16:32:54.188Z,98025.25
2023-02-26T16:35:48.808Z,97997.78
2023-02-26T16:38:46.375Z,97985.69
2023-02-26T16:41:37.899Z,98025.88
2023-02-26T16:44:32.394Z,98012.19
2023-02-26T16:47:24.880Z,97849.38
2023-02-26T16:50:38.289Z,98018.06
2023-02-26T16:53:30.502Z,97836.78
2023-02-26T16:56:18.884Z,98024.13
2023-02-26T16:59:24.476Z,98063.63
2023-02-26T17:02:18.985Z,98033.13
2023-02-26T17:05:18.903Z,97855.53
2023-02-26T17:08:20.344Z,98077.75
2023-02-26T17:11:33.422Z,97845.88
2023-02-26T17:14:27.204Z,98002.28
2023-02-26T17:17:12.992Z,98078.53
2023-02-26T17:20:01.100Z,97867.00
2023-02-26T17:22:47.592Z,98051.66
2023-02-26T17:25:40.777Z,98093.06
2023-02-26T17:28:31.100Z,98059.84
2023-02-26T17:31:16.500Z,97883.66
2023-02-26T17:34:01.939Z,97874.34
2023-02-26T17:36:48.820Z,98040.25
2023-02-26T17:39:34.496Z,98049.38
2023-02-26T17:42:23.786Z,98099.28
2023-02-26T17:45:10.263Z,97896.34
2023-02-26T17:47:55.745Z,98014.84
2023-02-26T17:50:55.316Z,98047.31
2023-02-26T17:53:41.046Z,98052.09
2023-02-26T17:56:29.412Z,98061.78
2023-02-26T17:59:15.515Z,98071.06
2023-02-26T18:02:01.071Z,97978.66
2023-02-26T18:04:46.671Z,98032.84
2023-02-26T18:07:32.594Z,97888.78
2023-02-26T18:10:24.600Z,98048.75
2023-02-26T18:13:11.662Z,98085.69
2023-02-26T18:15:58.900Z,98103.97
2023-02-26T18:18:45.908Z,97901.44
2023-02-26T18:21:33.282Z,98097.03
2023-02-26T18:24:18.583Z,98088.91
2023-02-26T18:27:04.147Z,98079.19
2023-02-26T18:29:50.015Z,98105.59
2023-02-26T18:32:36.241Z,98106.84
2023-02-26T18:35:24.221Z,98112.81
2023-02-26T18:38:15.369Z,98094.63
2023-02-26T18:41:02.367Z,98118.56
2023-02-26T18:43:47.829Z,97958.53
2023-02-26T18:46:35.409Z,98117.84
2023-02-26T18:49:22.052Z,97956.34
2023-02-26T18:52:10.805Z,98101.94
2023-02-26T18:54:56.622Z,98130.84
2023-02-26T18:57:43.165Z,98136.09
2023-02-26T19:00:29.413Z,98138.72
2023-02-26T19:03:15.369Z,98149.91
2023-02-26T19:06:03.307Z,98132.78
2023-02-26T19:08:49.019Z,98033.88
2023-02-26T19:11:34.702Z,98144.25
2023-02-26T19:14:20.048Z,97999.94
2023-02-26T19:17:05.755Z,98163.13
2023-02-26T19:19:51.060Z,98143.66
2023-02-26T19:22:39.353Z,98156.00
2023-02-26T19:25:27.116Z,98155.56
2023-02-26T19:28:12.747Z,97973.03
2023-02-26T19:30:58.512Z,98172.22
2023-02-26T19:33:44.901Z,98174.50
2023-02-26T19:36:33.642Z,98171.03
2023-02-26T19:39:20.172Z,98179.22
2023-02-26T19:42:06.589Z,98172.59
2023-02-26T19:44:52.237Z,98190.59
2023-02-26T19:47:40.616Z,97997.59
2023-02-26T19:50:27.424Z,97994.88
2023-02-26T19:53:13.136Z,98190.91
2023-02-26T19:55:58.521Z,97987.00
2023-02-26T19:58:44.028Z,98221.69
2023-02-26T20:01:29.873Z,98193.16
2023-02-26T20:04:17.140Z,98156.16
2023-02-26T20:07:06.204Z,98191.00
2023-02-26T20:09:52.210Z,98187.06
2023-02-26T20:12:38.224Z,98181.31
2023-02-26T20:15:27.341Z,98189.75
2023-02-26T20:18:13.681Z,98153.69
2023-02-26T20:21:08.296Z,98190.44
2023-02-26T20:23:57.670Z,98169.97
2023-02-26T20:26:45.057Z,98204.78
2023-02-26T20:29:30.759Z,98172.19
2023-02-26T20:32:19.719Z,98182.34
2023-02-26T20:35:05.775Z,98033.16
2023-02-26T20:37:51.072Z,98077.78
2023-02-26T20:40:36.746Z,98202.84
2023-02-26T20:43:23.060Z,98167.31
2023-02-26T20:46:10.577Z,98210.78
2023-02-26T20:48:56.426Z,98198.50
2023-02-26T20:51:42.976Z,98204.63
2023-02-26T20:54:28.782Z,98200.47
2023-02-26T20:57:14.636Z,98213.50
2023-02-26T20:59:59.888Z,98215.81
2023-02-26T21:02:46.670Z,98167.34
2023-02-26T21:05:34.499Z,98176.28
2023-02-26T21:08:19.723Z,98213.16
2023-02-26T21:11:08.339Z,98225.00
2023-02-26T21:13:53.964Z,98234.56
2023-02-26T21:16:41.462Z,98237.06
2023-02-26T21:19:31.083Z,98219.28
2023-02-26T21:22:20.818Z,98237.88
2023-02-26T21:25:09.928Z,98086.38
2023-02-26T21:27:59.221Z,98038.53
2023-02-26T21:30:44.671Z,98246.34
2023-02-26T21:33:30.533Z,98209.53
2023-02-26T21:36:16.779Z,98053.34
2023-02-26T21:39:02.794Z,98167.84
2023-02-26T21:41:48.838Z,98060.28
2023-02-26T21:44:36.357Z,98059.31
2023-02-26T21:47:21.642Z,98207.13
2023-02-26T21:50:07.840Z,98248.88
2023-02-26T21:52:53.295Z,98295.41
2023-02-26T21:55:39.622Z,98279.63
2023-02-26T21:58:25.749Z,98285.75
2023-02-26T22:01:11.301Z,98319.69
2023-02-26T22:03:56.729Z,98110.69
2023-02-26T22:06:42.181Z,98300.38
2023-02-26T22:09:27.894Z,98093.94
2023-02-26T22:12:17.272Z,98083.56
2023-02-26T22:15:02.697Z,98304.56
2023-02-26T22:17:48.212Z,98146.28
2023-02-26T22:20:33.673Z,98297.16
2023-02-26T22:23:19.301Z,98310.03
2023-02-26T22:26:05.137Z,98090.25
2023-02-26T22:28:50.356Z,98220.19
2023-02-26T22:31:36.017Z,98309.66
2023-02-26T22:34:21.269Z,98319.03
2023-02-26T22:37:06.835Z,98311.38
2023-02-26T22:39:52.314Z,98140.66
2023-02-26T22:42:37.835Z,98311.88
2023-02-26T22:45:23.111Z,98349.97
2023-02-26T22:48:09.066Z,98359.59
2023-02-26T22:50:54.819Z,98195.50
2023-02-26T22:53:40.532Z,98362.34
2023-02-26T22:56:27.934Z,98206.13
2023-02-26T22:59:13.508Z,98333.16
2023-02-26T23:01:59.038Z,98278.28
2023-02-26T23:04:44.552Z,98180.44
2023-02-26T23:07:30.028Z,98351.97
2023-02-26T23:10:18.267Z,98128.31
2023-02-26T23:13:04.145Z,98357.16
2023-02-26T23:15:50.459Z,98162.16
2023-02-26T23:18:37.282Z,98356.16
2023-02-26T23:21:22.981Z,98340.09
2023-02-26T23:24:08.510Z,98352.69
2023-02-26T23:26:54.029Z,98332.44
2023-02-26T23:29:42.168Z,98357.16
2023-02-26T23:32:27.668Z,98344.81
2023-02-26T23:35:12.997Z,98380.19
2023-02-26T23:37:58.520Z,98332.72
2023-02-26T23:40:43.987Z,98173.53
2023-02-26T23:43:29.529Z,98368.31
2023-02-26T23:46:17.122Z,98207.84
2023-02-26T23:49:03.163Z,98303.50
2023-02-26T23:51:48.852Z,98367.03
2023-02-26T23:54:34.129Z,98357.91
2023-02-26T23:57:21.411Z,98389.81
